createdAt,value
2023-05-22T00:00:17.215Z,16.68
2023-05-22T00:01:16.840Z,16.70
2023-05-22T00:02:16.832Z,16.68
2023-05-22T00:03:16.485Z,16.73
2023-05-22T00:04:17.089Z,16.70
2023-05-22T00:05:16.695Z,16.80
2023-05-22T00:06:16.378Z,16.80
2023-05-22T00:07:16.939Z,16.75
2023-05-22T00:08:16.492Z,16.77
2023-05-22T00:09:17.074Z,16.84
2023-05-22T00:10:16.653Z,16.83
2023-05-22T00:11:17.280Z,16.83
2023-05-22T00:12:16.360Z,16.83
2023-05-22T00:13:16.884Z,16.81
2023-05-22T00:14:16.407Z,16.78
2023-05-22T00:15:16.959Z,16.84
2023-05-22T00:16:16.499Z,16.86
2023-05-22T00:17:17.081Z,16.83
2023-05-22T00:18:16.847Z,16.86
2023-05-22T00:19:16.518Z,16.81
2023-05-22T00:20:16.872Z,16.81
2023-05-22T00:21:16.437Z,16.87
2023-05-22T00:22:16.990Z,16.87
2023-05-22T00:23:16.529Z,16.83
2023-05-22T00:24:17.083Z,16.81
2023-05-22T00:25:16.659Z,16.77
2023-05-22T00:26:17.216Z,16.75
2023-05-22T00:27:16.783Z,16.71
2023-05-22T00:28:16.346Z,16.66
2023-05-22T00:29:16.895Z,16.67
2023-05-22T00:30:16.461Z,16.67
2023-05-22T00:31:17.046Z,16.57
2023-05-22T00:32:16.509Z,16.52
2023-05-22T00:33:17.057Z,16.45
2023-05-22T00:34:16.630Z,16.39
2023-05-22T00:35:17.237Z,16.36
2023-05-22T00:36:16.760Z,16.28
2023-05-22T00:37:17.297Z,16.24
2023-05-22T00:38:16.858Z,16.21
2023-05-22T00:39:16.429Z,16.17
2023-05-22T00:40:17.026Z,16.14
2023-05-22T00:41:16.561Z,16.09
2023-05-22T00:42:17.283Z,16.01
2023-05-22T00:43:16.865Z,15.98
2023-05-22T00:44:16.414Z,15.92
2023-05-22T00:45:16.987Z,15.85
2023-05-22T00:46:16.580Z,15.80
2023-05-22T00:47:17.189Z,15.80
2023-05-22T00:48:16.749Z,15.72
2023-05-22T00:49:16.309Z,15.67
2023-05-22T00:50:16.883Z,15.63
2023-05-22T00:51:16.452Z,15.60
2023-05-22T00:52:16.967Z,15.60
2023-05-22T00:53:16.499Z,15.53
2023-05-22T00:54:17.037Z,15.55
2023-05-22T00:55:16.621Z,15.45
2023-05-22T00:56:17.224Z,15.39
2023-05-22T00:57:16.783Z,15.39
2023-05-22T00:58:16.336Z,15.38
2023-05-22T00:59:16.894Z,15.36
2023-05-22T01:00:16.474Z,15.32
2023-05-22T01:01:17.048Z,15.27
2023-05-22T01:02:16.765Z,15.23
2023-05-22T01:03:16.520Z,15.21
2023-05-22T01:04:17.266Z,15.17
2023-05-22T01:05:16.888Z,15.15
2023-05-22T01:06:16.412Z,15.18
2023-05-22T01:07:16.974Z,15.11
2023-05-22T01:08:16.521Z,15.11
2023-05-22T01:09:17.081Z,15.10
2023-05-22T01:10:16.603Z,15.10
2023-05-22T01:11:17.152Z,15.08
2023-05-22T01:12:16.497Z,15.07
2023-05-22T01:13:17.056Z,15.04
2023-05-22T01:14:16.619Z,15.04
2023-05-22T01:15:17.180Z,15.01
2023-05-22T01:16:16.734Z,15.00
2023-05-22T01:17:16.360Z,15.00
2023-05-22T01:18:17.016Z,15.01
2023-05-22T01:19:16.647Z,15.01
2023-05-22T01:20:17.259Z,15.02
2023-05-22T01:21:16.789Z,15.01
2023-05-22T01:22:16.744Z,15.00
2023-05-22T01:23:17.294Z,14.97
2023-05-22T01:24:16.833Z,15.00
2023-05-22T01:25:16.436Z,14.95
2023-05-22T01:26:16.994Z,14.93
2023-05-22T01:27:16.565Z,14.93
2023-05-22T01:28:17.150Z,14.91
2023-05-22T01:29:16.688Z,14.90
2023-05-22T01:30:16.486Z,14.87
2023-05-22T01:31:17.075Z,14.86
2023-05-22T01:32:16.802Z,14.87
2023-05-22T01:33:16.470Z,14.86
2023-05-22T01:34:17.267Z,14.82
2023-05-22T01:35:16.868Z,14.82
2023-05-22T01:36:16.441Z,14.80
2023-05-22T01:37:17.032Z,14.77
2023-05-22T01:38:16.570Z,14.76
2023-05-22T01:39:17.154Z,14.72
2023-05-22T01:40:16.710Z,14.70
2023-05-22T01:41:17.269Z,14.67
2023-05-22T01:42:16.753Z,14.67
2023-05-22T01:43:17.304Z,14.62
2023-05-22T01:44:16.928Z,14.60
2023-05-22T01:45:16.512Z,14.58
2023-05-22T01:46:17.074Z,14.55
2023-05-22T01:47:16.680Z,14.52
2023-05-22T01:48:17.240Z,14.53
2023-05-22T01:49:16.777Z,14.48
2023-05-22T01:50:17.312Z,14.48
2023-05-22T01:51:16.910Z,14.48
2023-05-22T01:52:17.135Z,14.43
2023-05-22T01:53:16.721Z,14.46
2023-05-22T01:54:17.315Z,14.42
2023-05-22T01:55:16.928Z,14.43
2023-05-22T01:56:16.509Z,14.36
2023-05-22T01:57:17.071Z,14.31
2023-05-22T01:58:16.704Z,14.31
2023-05-22T01:59:17.284Z,14.28
2023-05-22T02:00:16.859Z,14.25
2023-05-22T02:01:16.466Z,14.27
2023-05-22T02:02:16.742Z,14.25
2023-05-22T02:03:16.578Z,14.21
2023-05-22T02:04:16.537Z,14.22
2023-05-22T02:05:17.092Z,14.21
2023-05-22T02:06:17.153Z,14.18
2023-05-22T02:07:16.725Z,14.17
2023-05-22T02:08:17.320Z,14.15
2023-05-22T02:09:16.875Z,14.14
2023-05-22T02:10:16.433Z,14.15
2023-05-22T02:11:17.010Z,14.15
2023-05-22T02:12:16.351Z,14.15
2023-05-22T02:13:16.957Z,14.17
2023-05-22T02:14:16.520Z,14.15
2023-05-22T02:15:17.057Z,14.20
2023-05-22T02:16:16.658Z,14.22
2023-05-22T02:17:16.320Z,14.24
2023-05-22T02:18:16.881Z,14.21
2023-05-22T02:19:16.448Z,14.20
2023-05-22T02:20:17.125Z,14.15
2023-05-22T02:21:16.734Z,14.17
2023-05-22T02:22:17.059Z,14.12
2023-05-22T02:23:16.650Z,14.17
2023-05-22T02:24:17.280Z,14.17
2023-05-22T02:25:16.961Z,14.12
2023-05-22T02:26:17.120Z,14.20
2023-05-22T02:27:16.695Z,14.22
2023-05-22T02:28:17.246Z,14.20
2023-05-22T02:29:16.760Z,14.20
2023-05-22T02:30:17.359Z,14.20
2023-05-22T02:31:16.929Z,14.17
2023-05-22T02:32:16.982Z,14.18
2023-05-22T02:33:16.522Z,14.12
2023-05-22T02:34:17.076Z,14.14
2023-05-22T02:35:16.633Z,14.18
2023-05-22T02:36:17.218Z,14.29
2023-05-22T02:37:16.762Z,14.28
2023-05-22T02:38:16.356Z,14.20
2023-05-22T02:39:16.895Z,14.20
2023-05-22T02:40:16.448Z,14.20
2023-05-22T02:41:17.013Z,14.18
2023-05-22T02:42:16.768Z,14.12
2023-05-22T02:43:16.348Z,14.11
2023-05-22T02:44:16.905Z,14.07
2023-05-22T02:45:16.472Z,14.03
2023-05-22T02:46:17.076Z,13.98
2023-05-22T02:47:16.666Z,14.00
2023-05-22T02:48:17.322Z,13.92
2023-05-22T02:49:16.972Z,13.92
2023-05-22T02:50:16.527Z,13.87
2023-05-22T02:51:17.109Z,13.84
2023-05-22T02:52:16.878Z,13.82
2023-05-22T02:53:16.427Z,13.80
2023-05-22T02:54:16.968Z,13.80
2023-05-22T02:55:16.527Z,13.79
2023-05-22T02:56:17.113Z,13.76
2023-05-22T02:57:16.664Z,13.77
2023-05-22T02:58:16.504Z,13.82
2023-05-22T02:59:17.082Z,13.82
2023-05-22T03:00:16.656Z,13.80
2023-05-22T03:01:17.302Z,13.76
2023-05-22T03:02:16.640Z,13.77
2023-05-22T03:03:17.292Z,13.79
2023-05-22T03:04:16.981Z,13.79
2023-05-22T03:05:16.553Z,13.76
2023-05-22T03:06:17.102Z,13.77
2023-05-22T03:07:16.726Z,13.77
2023-05-22T03:08:16.399Z,13.70
2023-05-22T03:09:16.937Z,13.66
2023-05-22T03:10:16.497Z,13.63
2023-05-22T03:11:17.028Z,13.62
2023-05-22T03:12:16.596Z,13.63
2023-05-22T03:13:17.162Z,13.63
2023-05-22T03:14:16.700Z,13.63
2023-05-22T03:15:17.247Z,13.67
2023-05-22T03:16:16.878Z,13.72
2023-05-22T03:17:16.683Z,13.86
2023-05-22T03:18:17.289Z,13.89
2023-05-22T03:19:16.875Z,13.92
2023-05-22T03:20:16.573Z,13.90
2023-05-22T03:21:16.431Z,13.97
2023-05-22T03:22:16.392Z,13.98
2023-05-22T03:23:16.939Z,13.96
2023-05-22T03:24:16.488Z,13.94
2023-05-22T03:25:17.051Z,13.89
2023-05-22T03:26:16.622Z,13.84
2023-05-22T03:27:17.218Z,13.83
2023-05-22T03:28:16.818Z,13.80
2023-05-22T03:29:16.437Z,13.76
2023-05-22T03:30:17.082Z,13.75
2023-05-22T03:31:16.687Z,13.70
2023-05-22T03:32:16.694Z,13.69
2023-05-22T03:33:17.263Z,13.67
2023-05-22T03:34:17.015Z,13.67
2023-05-22T03:35:16.582Z,13.65
2023-05-22T03:36:17.148Z,13.65
2023-05-22T03:37:16.688Z,13.62
2023-05-22T03:38:17.222Z,13.63
2023-05-22T03:39:16.832Z,13.63
2023-05-22T03:40:16.388Z,13.65
2023-05-22T03:41:17.032Z,13.66
2023-05-22T03:42:17.147Z,13.65
2023-05-22T03:43:16.707Z,13.75
2023-05-22T03:44:17.264Z,13.75
2023-05-22T03:45:16.821Z,13.73
2023-05-22T03:46:16.412Z,13.69
2023-05-22T03:47:17.105Z,13.70
2023-05-22T03:48:16.719Z,13.69
2023-05-22T03:49:17.288Z,13.65
2023-05-22T03:50:16.832Z,13.62
2023-05-22T03:51:18.089Z,13.63
2023-05-22T03:52:16.479Z,13.66
2023-05-22T03:53:17.043Z,13.65
2023-05-22T03:54:16.605Z,13.69
2023-05-22T03:55:17.198Z,13.66
2023-05-22T03:56:16.747Z,13.66
2023-05-22T03:57:16.334Z,13.67
2023-05-22T03:58:16.903Z,13.69
2023-05-22T03:59:16.513Z,13.67
2023-05-22T04:00:17.182Z,13.69
2023-05-22T04:01:16.770Z,13.73
2023-05-22T04:02:16.378Z,13.79
2023-05-22T04:03:17.191Z,13.86
2023-05-22T04:04:16.928Z,13.96
2023-05-22T04:05:16.472Z,14.00
2023-05-22T04:06:17.084Z,14.01
2023-05-22T04:07:16.615Z,14.04
2023-05-22T04:08:17.140Z,14.04
2023-05-22T04:09:16.676Z,13.98
2023-05-22T04:10:17.226Z,14.00
2023-05-22T04:11:16.823Z,14.00
2023-05-22T04:12:17.274Z,14.04
2023-05-22T04:13:16.824Z,14.05
2023-05-22T04:14:16.399Z,14.01
2023-05-22T04:15:16.923Z,14.10
2023-05-22T04:16:16.448Z,14.05
2023-05-22T04:17:17.041Z,14.04
2023-05-22T04:18:16.629Z,14.10
2023-05-22T04:19:17.246Z,14.05
2023-05-22T04:20:16.876Z,14.11
2023-05-22T04:21:16.434Z,14.11
2023-05-22T04:22:16.780Z,14.18
2023-05-22T04:23:16.340Z,14.29
2023-05-22T04:24:16.921Z,14.36
2023-05-22T04:25:16.463Z,14.38
2023-05-22T04:26:17.002Z,14.27
2023-05-22T04:27:16.577Z,14.32
2023-05-22T04:28:17.146Z,14.40
2023-05-22T04:29:16.696Z,14.46
2023-05-22T04:30:17.264Z,14.56
2023-05-22T04:31:16.866Z,14.62
2023-05-22T04:32:16.735Z,14.65
2023-05-22T04:33:17.293Z,14.72
2023-05-22T04:34:16.829Z,14.70
2023-05-22T04:35:16.368Z,14.73
2023-05-22T04:36:16.931Z,14.82
2023-05-22T04:37:16.460Z,14.86
2023-05-22T04:38:17.012Z,14.93
2023-05-22T04:39:16.593Z,15.01
2023-05-22T04:40:17.203Z,15.04
2023-05-22T04:41:16.763Z,15.10
2023-05-22T04:42:17.038Z,15.21
2023-05-22T04:43:16.598Z,15.27
2023-05-22T04:44:17.205Z,15.32
2023-05-22T04:45:16.838Z,15.39
2023-05-22T04:46:16.440Z,15.46
2023-05-22T04:47:17.066Z,15.53
2023-05-22T04:48:16.619Z,15.60
2023-05-22T04:49:17.157Z,15.66
2023-05-22T04:50:16.712Z,15.60
2023-05-22T04:51:17.244Z,15.59
2023-05-22T04:52:16.934Z,15.67
2023-05-22T04:53:16.483Z,15.69
2023-05-22T04:54:17.045Z,15.84
2023-05-22T04:55:16.679Z,16.00
2023-05-22T04:56:28.094Z,16.09
2023-05-22T04:57:17.238Z,16.09
2023-05-22T04:58:16.791Z,16.25
2023-05-22T04:59:16.422Z,16.35
2023-05-22T05:00:17.125Z,16.37
2023-05-22T05:01:16.879Z,16.52
2023-05-22T05:02:17.236Z,16.57
2023-05-22T05:03:16.862Z,16.64
2023-05-22T05:04:16.670Z,16.74
2023-05-22T05:05:17.260Z,16.88
2023-05-22T05:06:16.817Z,16.97
2023-05-22T05:07:16.402Z,17.09
2023-05-22T05:08:16.958Z,17.23
2023-05-22T05:09:16.524Z,17.29
2023-05-22T05:10:17.060Z,17.42
2023-05-22T05:11:16.644Z,17.57
2023-05-22T05:12:17.203Z,17.66
2023-05-22T05:13:16.766Z,17.76
2023-05-22T05:14:16.316Z,17.80
2023-05-22T05:15:16.888Z,17.87
2023-05-22T05:16:16.462Z,17.88
2023-05-22T05:17:17.192Z,17.94
2023-05-22T05:18:16.774Z,18.22
2023-05-22T05:19:16.575Z,18.32
2023-05-22T05:20:16.443Z,18.33
2023-05-22T05:21:17.014Z,18.46
2023-05-22T05:22:16.430Z,18.54
2023-05-22T05:23:17.007Z,18.78
2023-05-22T05:24:16.578Z,18.78
2023-05-22T05:25:17.139Z,18.82
2023-05-22T05:26:16.699Z,18.92
2023-05-22T05:27:17.277Z,19.14
2023-05-22T05:28:16.895Z,19.27
2023-05-22T05:29:16.467Z,19.26
2023-05-22T05:30:18.938Z,19.43
2023-05-22T05:31:17.269Z,19.67
2023-05-22T05:32:17.151Z,19.74
2023-05-22T05:33:16.953Z,19.86
2023-05-22T05:34:16.504Z,19.92
2023-05-22T05:35:17.093Z,20.05
2023-05-22T05:36:16.657Z,20.13
2023-05-22T05:37:17.233Z,20.29
2023-05-22T05:38:16.796Z,20.29
2023-05-22T05:39:16.398Z,20.38
2023-05-22T05:40:16.991Z,20.29
2023-05-22T05:41:16.556Z,20.40
2023-05-22T05:42:16.758Z,20.36
2023-05-22T05:43:16.312Z,20.52
2023-05-22T05:44:16.853Z,20.71
2023-05-22T05:45:16.412Z,20.85
2023-05-22T05:46:16.991Z,20.82
2023-05-22T05:47:16.752Z,20.62
2023-05-22T05:48:16.328Z,20.57
2023-05-22T05:49:16.899Z,20.59
2023-05-22T05:50:16.482Z,20.62
2023-05-22T05:51:17.077Z,20.75
2023-05-22T05:52:16.353Z,20.72
2023-05-22T05:53:16.910Z,21.06
2023-05-22T05:54:16.476Z,21.24
2023-05-22T05:55:17.008Z,21.17
2023-05-22T05:56:16.564Z,21.20
2023-05-22T05:57:17.272Z,21.24
2023-05-22T05:58:16.852Z,21.37
2023-05-22T05:59:16.382Z,21.06
2023-05-22T06:00:17.003Z,21.31
2023-05-22T06:01:16.571Z,21.45
2023-05-22T06:02:16.947Z,21.69
2023-05-22T06:03:16.637Z,21.58
2023-05-22T06:04:16.411Z,21.54
2023-05-22T06:05:17.049Z,21.44
2023-05-22T06:06:16.782Z,21.34
2023-05-22T06:07:16.348Z,21.57
2023-05-22T06:08:16.977Z,21.83
2023-05-22T06:09:16.574Z,21.24
2023-05-22T06:10:17.144Z,21.47
2023-05-22T06:11:16.713Z,21.92
2023-05-22T06:12:17.196Z,22.26
2023-05-22T06:13:16.777Z,22.23
2023-05-22T06:14:17.329Z,22.19
2023-05-22T06:15:16.900Z,22.00
2023-05-22T06:16:16.526Z,22.09
2023-05-22T06:17:17.189Z,21.78
2023-05-22T06:18:16.766Z,22.06
2023-05-22T06:19:17.373Z,22.03
2023-05-22T06:20:17.182Z,21.69
2023-05-22T06:21:16.785Z,22.05
2023-05-22T06:22:16.709Z,21.81
2023-05-22T06:23:17.256Z,22.07
2023-05-22T06:24:16.819Z,22.61
2023-05-22T06:25:16.381Z,22.69
2023-05-22T06:26:16.938Z,22.58
2023-05-22T06:27:16.479Z,22.88
2023-05-22T06:28:17.041Z,22.05
2023-05-22T06:29:16.592Z,21.91
2023-05-22T06:30:22.557Z,22.51
2023-05-22T06:31:17.313Z,22.92
2023-05-22T06:32:16.510Z,22.97
2023-05-22T06:33:17.223Z,23.40
2023-05-22T06:34:16.903Z,23.52
2023-05-22T06:35:16.618Z,23.64
2023-05-22T06:36:17.180Z,23.81
2023-05-22T06:37:16.747Z,24.00
2023-05-22T06:38:17.332Z,24.13
2023-05-22T06:39:16.897Z,24.20
2023-05-22T06:40:16.478Z,24.17
2023-05-22T06:41:17.022Z,23.48
2023-05-22T06:42:16.734Z,23.75
2023-05-22T06:43:17.320Z,23.96
2023-05-22T06:44:17.065Z,24.31
2023-05-22T06:45:16.647Z,24.46
2023-05-22T06:46:17.288Z,24.25
2023-05-22T06:47:16.966Z,24.89
2023-05-22T06:48:16.512Z,25.16
2023-05-22T06:49:17.069Z,25.20
2023-05-22T06:50:16.648Z,25.41
2023-05-22T06:51:17.168Z,25.14
2023-05-22T06:52:16.756Z,24.79
2023-05-22T06:53:16.354Z,25.40
2023-05-22T06:54:16.941Z,25.72
2023-05-22T06:55:16.513Z,24.85
2023-05-22T06:56:17.083Z,25.45
2023-05-22T06:57:16.654Z,25.82
2023-05-22T06:58:17.283Z,25.78
2023-05-22T06:59:16.843Z,25.88
2023-05-22T07:00:16.401Z,25.85
2023-05-22T07:01:17.058Z,26.17
2023-05-22T07:02:16.788Z,26.13
2023-05-22T07:03:16.310Z,26.00
2023-05-22T07:04:16.850Z,25.51
2023-05-22T07:05:16.382Z,26.08
2023-05-22T07:06:17.176Z,26.59
2023-05-22T07:07:16.919Z,25.93
2023-05-22T07:08:16.448Z,26.26
2023-05-22T07:09:16.968Z,26.78
2023-05-22T07:10:16.544Z,27.34
2023-05-22T07:11:17.081Z,28.11
2023-05-22T07:12:16.646Z,26.99
2023-05-22T07:13:17.201Z,26.56
2023-05-22T07:14:16.798Z,27.17
2023-05-22T07:15:16.372Z,27.55
2023-05-22T07:16:16.993Z,28.06
2023-05-22T07:17:16.643Z,27.06
2023-05-22T07:18:17.237Z,27.73
2023-05-22T07:19:16.858Z,27.77
2023-05-22T07:20:16.486Z,28.09
2023-05-22T07:21:17.021Z,27.72
2023-05-22T07:22:16.489Z,28.24
2023-05-22T07:23:17.122Z,28.06
2023-05-22T07:24:16.777Z,28.24
2023-05-22T07:25:16.365Z,27.94
2023-05-22T07:26:17.050Z,28.48
2023-05-22T07:27:16.590Z,28.13
2023-05-22T07:28:17.143Z,28.30
2023-05-22T07:29:16.694Z,27.86
2023-05-22T07:30:17.296Z,28.06
2023-05-22T07:31:16.849Z,28.10
2023-05-22T07:32:17.110Z,28.04
2023-05-22T07:33:16.802Z,28.72
2023-05-22T07:34:16.359Z,28.32
2023-05-22T07:35:16.949Z,29.38
2023-05-22T07:36:16.493Z,29.77
2023-05-22T07:37:17.069Z,30.44
2023-05-22T07:38:16.606Z,29.69
2023-05-22T07:39:17.211Z,27.24
2023-05-22T07:40:16.753Z,28.06
2023-05-22T07:41:16.336Z,28.75
2023-05-22T07:42:16.930Z,29.33
2023-05-22T07:43:16.493Z,27.82
2023-05-22T07:44:17.125Z,27.62
2023-05-22T07:45:16.727Z,28.47
2023-05-22T07:46:17.367Z,29.62
2023-05-22T07:47:16.975Z,29.52
2023-05-22T07:48:16.595Z,30.36
2023-05-22T07:49:17.217Z,30.39
2023-05-22T07:50:16.783Z,30.52
2023-05-22T07:51:17.308Z,29.79
2023-05-22T07:52:16.806Z,30.18
2023-05-22T07:53:16.390Z,30.27
2023-05-22T07:54:17.004Z,30.16
2023-05-22T07:55:16.593Z,31.17
2023-05-22T07:56:17.161Z,31.57
2023-05-22T07:57:16.768Z,30.89
2023-05-22T07:58:16.340Z,29.69
2023-05-22T07:59:16.898Z,29.82
2023-05-22T08:00:16.485Z,29.58
2023-05-22T08:01:17.120Z,30.89
2023-05-22T08:02:16.584Z,31.35
2023-05-22T08:03:17.614Z,31.48
2023-05-22T08:04:17.241Z,31.82
2023-05-22T08:05:16.365Z,32.21
2023-05-22T08:06:17.088Z,32.32
2023-05-22T08:07:16.753Z,32.73
2023-05-22T08:08:17.442Z,32.82
2023-05-22T08:09:17.333Z,33.24
2023-05-22T08:10:17.085Z,33.37
2023-05-22T08:11:16.813Z,33.24
2023-05-22T08:12:16.828Z,31.85
2023-05-22T08:13:16.414Z,32.57
2023-05-22T08:14:16.996Z,32.61
2023-05-22T08:15:16.615Z,32.72
2023-05-22T08:16:17.362Z,33.48
2023-05-22T08:17:16.967Z,33.51
2023-05-22T08:18:16.781Z,33.38
2023-05-22T08:19:16.589Z,33.65
2023-05-22T08:20:16.455Z,33.93
2023-05-22T08:21:17.218Z,33.76
2023-05-22T08:22:16.385Z,30.18
2023-05-22T08:23:17.032Z,30.16
2023-05-22T08:24:16.639Z,30.51
2023-05-22T08:25:17.339Z,31.62
2023-05-22T08:26:17.084Z,31.28
2023-05-22T08:27:16.626Z,30.68
2023-05-22T08:28:17.248Z,31.68
2023-05-22T08:29:16.872Z,33.24
2023-05-22T08:30:16.458Z,33.64
2023-05-22T08:31:17.103Z,34.14
2023-05-22T08:32:16.606Z,32.91
2023-05-22T08:33:17.195Z,32.26
2023-05-22T08:34:16.893Z,32.93
2023-05-22T08:35:16.529Z,32.73
2023-05-22T08:36:17.120Z,32.82
2023-05-22T08:37:16.717Z,33.05
2023-05-22T08:38:17.356Z,34.07
2023-05-22T08:39:17.169Z,34.61
2023-05-22T08:40:16.716Z,33.58
2023-05-22T08:41:17.256Z,33.59
2023-05-22T08:42:16.943Z,34.30
2023-05-22T08:43:16.522Z,32.76
2023-05-22T08:44:17.164Z,33.20
2023-05-22T08:45:16.812Z,33.79
2023-05-22T08:46:16.434Z,32.31
2023-05-22T08:47:17.090Z,32.03
2023-05-22T08:48:16.852Z,32.27
2023-05-22T08:49:16.394Z,33.23
2023-05-22T08:50:16.956Z,34.47
2023-05-22T08:51:16.528Z,34.86
2023-05-22T08:52:16.877Z,34.23
2023-05-22T08:53:16.437Z,34.62
2023-05-22T08:54:16.975Z,35.06
2023-05-22T08:55:16.746Z,35.19
2023-05-22T08:56:16.309Z,33.96
2023-05-22T08:57:16.916Z,33.79
2023-05-22T08:58:16.640Z,33.45
2023-05-22T08:59:17.289Z,33.59
2023-05-22T09:00:16.878Z,33.68
2023-05-22T09:01:16.781Z,34.36
2023-05-22T09:02:17.303Z,34.74
2023-05-22T09:03:16.923Z,34.06
2023-05-22T09:04:16.674Z,31.99
2023-05-22T09:05:17.279Z,28.97
2023-05-22T09:06:16.879Z,28.69
2023-05-22T09:07:16.554Z,29.49
2023-05-22T09:08:20.720Z,31.51
2023-05-22T09:09:16.856Z,31.18
2023-05-22T09:10:16.425Z,31.89
2023-05-22T09:11:16.974Z,33.06
2023-05-22T09:12:16.552Z,33.62
2023-05-22T09:13:17.098Z,32.75
2023-05-22T09:14:16.673Z,32.30
2023-05-22T09:15:17.211Z,32.20
2023-05-22T09:16:16.824Z,31.83
2023-05-22T09:17:16.698Z,32.71
2023-05-22T09:18:16.366Z,33.13
2023-05-22T09:19:17.014Z,32.72
2023-05-22T09:20:16.742Z,31.35
2023-05-22T09:21:28.513Z,31.35
2023-05-22T09:22:17.039Z,31.07
2023-05-22T09:23:16.602Z,31.48
2023-05-22T09:24:17.290Z,31.32
2023-05-22T09:25:16.820Z,30.97
2023-05-22T09:26:16.392Z,29.66
2023-05-22T09:27:17.004Z,28.37
2023-05-22T09:28:16.632Z,28.66
2023-05-22T09:29:17.276Z,30.70
2023-05-22T09:30:16.837Z,31.49
2023-05-22T09:31:16.445Z,32.04
2023-05-22T09:32:16.802Z,31.69
2023-05-22T09:33:16.391Z,31.32
2023-05-22T09:34:16.964Z,32.39
2023-05-22T09:35:16.517Z,33.14
2023-05-22T09:36:17.122Z,33.38
2023-05-22T09:37:16.689Z,32.39
2023-05-22T09:38:17.236Z,32.41
2023-05-22T09:39:16.808Z,32.80
2023-05-22T09:40:16.376Z,33.68
2023-05-22T09:41:16.941Z,34.17
2023-05-22T09:42:16.542Z,33.13
2023-05-22T09:43:17.080Z,32.07
2023-05-22T09:44:16.737Z,32.69
2023-05-22T09:45:16.326Z,31.94
2023-05-22T09:46:16.955Z,31.44
2023-05-22T09:47:16.758Z,32.82
2023-05-22T09:48:16.382Z,33.42
2023-05-22T09:49:17.420Z,33.35
2023-05-22T09:50:17.339Z,32.89
2023-05-22T09:51:16.889Z,32.76
2023-05-22T09:52:17.006Z,32.78
2023-05-22T09:53:16.528Z,32.83
2023-05-22T09:54:17.092Z,32.27
2023-05-22T09:55:16.681Z,32.68
2023-05-22T09:56:21.423Z,32.26
2023-05-22T09:57:16.806Z,32.35
2023-05-22T09:58:16.390Z,32.83
2023-05-22T09:59:17.054Z,33.91
2023-05-22T10:00:16.602Z,34.58
2023-05-22T10:02:16.755Z,33.83
2023-05-22T10:03:17.283Z,33.51
2023-05-22T10:04:16.871Z,32.32
2023-05-22T10:05:16.468Z,33.17
2023-05-22T10:06:17.023Z,33.34
2023-05-22T10:07:16.553Z,32.87
2023-05-22T10:08:17.101Z,32.59
2023-05-22T10:09:19.002Z,32.13
2023-05-22T10:10:17.234Z,30.41
2023-05-22T10:11:16.828Z,31.57
2023-05-22T10:12:16.528Z,32.42
2023-05-22T10:13:17.168Z,32.62
2023-05-22T10:14:16.743Z,33.88
2023-05-22T10:15:16.687Z,34.46
2023-05-22T10:16:17.320Z,34.68
2023-05-22T10:17:16.988Z,34.72
2023-05-22T10:18:16.638Z,34.83
2023-05-22T10:19:17.202Z,35.27
2023-05-22T10:20:16.824Z,35.43
2023-05-22T10:21:16.395Z,35.72
2023-05-22T10:22:17.138Z,35.19
2023-05-22T10:23:16.848Z,34.40
2023-05-22T10:24:16.415Z,33.85
2023-05-22T10:25:17.017Z,34.34
2023-05-22T10:26:16.728Z,34.62
2023-05-22T10:27:17.315Z,34.82
2023-05-22T10:28:16.886Z,34.20
2023-05-22T10:29:16.585Z,33.17
2023-05-22T10:30:17.313Z,33.82
2023-05-22T10:31:16.892Z,34.59
2023-05-22T10:32:16.521Z,33.21
2023-05-22T10:33:17.149Z,31.27
2023-05-22T10:34:16.882Z,32.16
2023-05-22T10:35:16.442Z,31.37
2023-05-22T10:36:17.005Z,30.07
2023-05-22T10:37:18.309Z,30.96
2023-05-22T10:38:16.525Z,32.61
2023-05-22T10:39:17.184Z,33.59
2023-05-22T10:40:16.777Z,33.62
2023-05-22T10:41:16.328Z,33.86
2023-05-22T10:42:16.752Z,33.12
2023-05-22T10:43:17.319Z,33.69
2023-05-22T10:44:16.865Z,34.47
2023-05-22T10:45:16.460Z,34.65
2023-05-22T10:46:17.035Z,34.74
2023-05-22T10:47:16.665Z,34.79
2023-05-22T10:48:17.229Z,34.51
2023-05-22T10:49:16.786Z,34.86
2023-05-22T10:50:16.350Z,35.21
2023-05-22T10:51:16.983Z,35.38
2023-05-22T10:52:16.462Z,34.83
2023-05-22T10:53:17.042Z,33.17
2023-05-22T10:54:16.617Z,32.62
2023-05-22T10:55:17.163Z,33.27
2023-05-22T10:56:16.710Z,33.61
2023-05-22T10:57:17.290Z,32.99
2023-05-22T10:58:16.860Z,33.52
2023-05-22T10:59:16.419Z,33.31
2023-05-22T11:00:16.987Z,34.02
2023-05-22T11:01:16.621Z,34.44
2023-05-22T11:02:17.329Z,33.38
2023-05-22T11:03:18.487Z,33.00
2023-05-22T11:04:16.401Z,32.73
2023-05-22T11:05:17.052Z,32.95
2023-05-22T11:06:16.615Z,33.95
2023-05-22T11:07:17.181Z,34.10
2023-05-22T11:08:18.903Z,33.80
2023-05-22T11:09:17.081Z,33.67
2023-05-22T11:10:16.608Z,33.75
2023-05-22T11:11:17.232Z,34.14
2023-05-22T11:12:16.574Z,33.72
2023-05-22T11:13:17.200Z,33.97
2023-05-22T11:14:16.747Z,34.00
2023-05-22T11:15:17.326Z,34.21
2023-05-22T11:16:16.900Z,34.06
2023-05-22T11:17:16.622Z,33.06
2023-05-22T11:18:16.384Z,32.45
2023-05-22T11:20:16.384Z,32.78
2023-05-22T11:21:17.082Z,31.76
2023-05-22T11:22:16.577Z,31.99
2023-05-22T11:23:17.135Z,32.45
2023-05-22T11:24:16.710Z,33.21
2023-05-22T11:25:17.258Z,31.16
2023-05-22T11:26:16.801Z,30.06
2023-05-22T11:27:16.379Z,30.85
2023-05-22T11:28:16.949Z,31.21
2023-05-22T11:29:16.509Z,31.59
2023-05-22T11:30:17.156Z,32.32
2023-05-22T11:31:16.975Z,32.37
2023-05-22T11:32:17.249Z,32.66
2023-05-22T11:33:16.869Z,32.18
2023-05-22T11:34:16.487Z,31.94
2023-05-22T11:35:17.115Z,32.39
2023-05-22T11:36:16.947Z,33.03
2023-05-22T11:37:16.594Z,33.34
2023-05-22T11:38:17.129Z,33.44
2023-05-22T11:39:16.769Z,33.25
2023-05-22T11:40:17.312Z,32.73
2023-05-22T11:41:16.879Z,32.28
2023-05-22T11:42:16.661Z,30.86
2023-05-22T11:43:17.241Z,30.86
2023-05-22T11:44:16.815Z,30.78
2023-05-22T11:45:16.361Z,31.27
2023-05-22T11:46:16.978Z,30.72
2023-05-22T11:47:16.593Z,30.58
2023-05-22T11:48:17.237Z,30.69
2023-05-22T11:49:16.941Z,30.32
2023-05-22T11:50:20.276Z,29.97
2023-05-22T11:51:16.389Z,30.03
2023-05-22T11:52:16.655Z,30.07
2023-05-22T11:53:17.203Z,30.14
2023-05-22T11:54:16.726Z,29.09
2023-05-22T11:55:17.270Z,28.11
2023-05-22T11:56:16.903Z,28.38
2023-05-22T11:57:16.470Z,28.54
2023-05-22T11:58:17.078Z,28.16
2023-05-22T11:59:16.683Z,28.32
2023-05-22T12:00:16.466Z,28.35
2023-05-22T12:01:17.129Z,28.38
2023-05-22T12:02:16.530Z,28.27
2023-05-22T12:03:17.185Z,27.97
2023-05-22T12:04:17.113Z,27.45
2023-05-22T12:05:16.878Z,27.40
2023-05-22T12:06:17.219Z,27.51
2023-05-22T12:07:17.256Z,27.73
2023-05-22T12:08:16.823Z,27.80
2023-05-22T12:09:16.360Z,27.79
2023-05-22T12:10:16.992Z,27.86
2023-05-22T12:11:16.635Z,27.79
2023-05-22T12:12:17.044Z,27.89
2023-05-22T12:13:16.629Z,27.58
2023-05-22T12:14:17.201Z,27.73
2023-05-22T12:15:16.763Z,27.55
2023-05-22T12:16:16.329Z,27.48
2023-05-22T12:17:16.955Z,27.35
2023-05-22T12:18:16.530Z,27.30
2023-05-22T12:19:17.133Z,27.48
2023-05-22T12:20:16.313Z,27.59
2023-05-22T12:21:16.868Z,27.65
2023-05-22T12:22:17.255Z,27.73
2023-05-22T12:23:16.853Z,27.57
2023-05-22T12:24:16.400Z,27.38
2023-05-22T12:25:17.032Z,27.30
2023-05-22T12:26:16.654Z,27.21
2023-05-22T12:27:17.213Z,27.18
2023-05-22T12:28:16.861Z,26.95
2023-05-22T12:29:16.452Z,27.11
2023-05-22T12:30:17.027Z,27.07
2023-05-22T12:31:16.672Z,27.09
2023-05-22T12:32:17.298Z,27.17
2023-05-22T12:33:17.018Z,27.20
2023-05-22T12:34:16.637Z,27.20
2023-05-22T12:35:17.524Z,27.20
2023-05-22T12:36:17.282Z,27.24
2023-05-22T12:37:16.825Z,27.18
2023-05-22T12:38:16.403Z,27.21
2023-05-22T12:39:16.979Z,27.25
2023-05-22T12:40:16.557Z,27.18
2023-05-22T12:41:17.166Z,27.18
2023-05-22T12:42:16.636Z,27.17
2023-05-22T12:43:17.209Z,27.18
2023-05-22T12:44:16.746Z,27.24
2023-05-22T12:45:17.308Z,27.31
2023-05-22T12:46:16.960Z,27.30
2023-05-22T12:47:16.580Z,27.30
2023-05-22T12:48:17.127Z,27.25
2023-05-22T12:49:16.662Z,27.28
2023-05-22T12:50:17.245Z,27.18
2023-05-22T12:51:18.055Z,27.20
2023-05-22T12:52:16.843Z,27.20
2023-05-22T12:53:16.429Z,27.20
2023-05-22T12:54:17.074Z,27.25